Parker, Colorado
Current Conditions -  °F | °C
As of 7:53 PM on Tuesday 21 Oct 2014 (Local Time) from KAPA Reporting Station
Scattered Clouds Scattered Clouds  
Wind Chill: 63°   Ceiling: Unl
Heat Index: 63°   Visibility: 10mi
Dew Point: 37°   Wind: 10mph
Humidity: 38%   Direction: 190°S
Pressure: 29.95"   Gusts: NA
Location:  39.52°N, 104.76°W
Report Text: KAPA 220153Z 19009KT 10SM SCT120 SCT200 17/03 A2995 RMK AO2 SLP093 T01720028
Loading
Personal Weather Stations






























Interactive Weather Map
Tropical Storm Tracking
New forecast layout! Learn more

10-Day Weather Forecast

Advertisements
Track Severe Weather on mobile